Time;durP1;ratioP1;P1;durP2;ratioP2;P2;SDS_P1;SDS_P2;PMS_P1;PMS_P2;Temp;Humidity;BMP_temperature;BMP_pressure;BME280_temperature;BME280_humidity;BME280_pressure;Samples;Min_cycle;Max_cycle;Signal;HPM_P1;HPM_P2
2023/12/19 00:00:07;;;;;;;15.13;10.13;;;5.10;99.90;;;;;;5076364;28;20199;-79
2023/12/19 00:02:33;;;;;;;15.83;11.10;;;5.10;99.90;;;;;;5077624;28;20182;-78
2023/12/19 00:04:58;;;;;;;19.93;11.87;;;5.20;99.90;;;;;;5077336;28;20254;-78
2023/12/19 00:07:24;;;;;;;14.67;11.20;;;5.20;99.90;;;;;;5076776;28;20265;-78
2023/12/19 00:09:49;;;;;;;19.93;12.33;;;5.10;99.90;;;;;;5076966;28;20229;-78
2023/12/19 00:12:15;;;;;;;20.07;12.30;;;5.10;99.90;;;;;;5077931;28;20229;-78
2023/12/19 00:14:41;;;;;;;18.00;11.90;;;5.10;99.90;;;;;;5061450;28;20187;-79
2023/12/19 00:17:06;;;;;;;18.20;12.53;;;5.10;99.90;;;;;;5057158;28;20256;-79
2023/12/19 00:19:32;;;;;;;19.33;12.90;;;5.10;99.90;;;;;;5072856;28;20207;-78
2023/12/19 00:21:57;;;;;;;18.70;12.87;;;5.10;99.90;;;;;;5074623;28;20186;-78
2023/12/19 00:24:23;;;;;;;18.23;13.50;;;5.10;99.90;;;;;;5075617;28;20538;-79
2023/12/19 00:26:48;;;;;;;17.87;12.73;;;5.10;99.90;;;;;;5077199;28;20178;-79
2023/12/19 00:29:14;;;;;;;18.90;13.37;;;5.10;99.90;;;;;;5075879;28;20221;-78
2023/12/19 00:31:40;;;;;;;19.27;13.23;;;5.10;99.90;;;;;;5075820;28;20194;-78
2023/12/19 00:34:05;;;;;;;16.50;13.43;;;5.00;99.90;;;;;;5077030;28;20187;-79
2023/12/19 00:36:31;;;;;;;18.70;14.07;;;5.10;99.90;;;;;;5076678;28;20203;-79
2023/12/19 00:38:56;;;;;;;19.03;13.00;;;5.00;99.90;;;;;;5076985;28;20195;-78
2023/12/19 00:41:22;;;;;;;20.40;13.60;;;5.00;99.90;;;;;;5075478;28;20549;-78
2023/12/19 00:43:47;;;;;;;19.10;13.53;;;5.10;99.90;;;;;;5073572;28;20221;-79
2023/12/19 00:46:13;;;;;;;17.33;13.50;;;5.10;99.90;;;;;;5056551;28;20176;-79
2023/12/19 00:48:39;;;;;;;24.97;14.03;;;5.00;99.90;;;;;;5056213;28;20270;-78
2023/12/19 00:51:10;;;;;;;17.93;13.67;;;5.10;99.90;;;;;;5057143;28;20213;-77
2023/12/19 00:53:36;;;;;;;20.90;14.33;;;5.00;99.90;;;;;;5074253;28;20179;-78
2023/12/19 00:56:07;;;;;;;19.83;14.50;;;5.10;99.90;;;;;;5074005;28;20190;-77
2023/12/19 00:58:33;;;;;;;18.70;14.50;;;5.00;99.90;;;;;;5074942;28;20166;-77
2023/12/19 01:00:58;;;;;;;19.77;14.37;;;5.00;99.90;;;;;;5071915;28;20167;-78
2023/12/19 01:03:24;;;;;;;19.00;13.80;;;5.10;99.90;;;;;;5074963;28;20182;-77
2023/12/19 01:05:49;;;;;;;18.07;14.07;;;5.00;99.90;;;;;;5074709;28;20257;-79
2023/12/19 01:08:15;;;;;;;18.87;13.60;;;5.00;99.90;;;;;;5074753;28;20183;-79
2023/12/19 01:10:41;;;;;;;19.43;12.47;;;5.10;99.90;;;;;;5071031;28;20199;-79
2023/12/19 01:13:06;;;;;;;19.33;12.97;;;5.10;99.90;;;;;;5054785;28;20719;-78
2023/12/19 01:15:32;;;;;;;20.87;14.10;;;5.10;99.90;;;;;;5066963;28;20219;-77
2023/12/19 01:17:57;;;;;;;18.93;12.23;;;5.10;99.90;;;;;;5074642;28;20670;-79
2023/12/19 01:20:23;;;;;;;16.77;11.97;;;5.10;99.90;;;;;;5074154;28;20266;-79
2023/12/19 01:22:48;;;;;;;17.63;10.67;;;5.10;99.90;;;;;;5040821;28;20183;-79
2023/12/19 01:25:14;;;;;;;19.33;11.03;;;5.10;99.90;;;;;;5054708;28;20183;-78
2023/12/19 01:27:39;;;;;;;17.10;10.67;;;5.20;99.90;;;;;;5055001;28;20175;-78
2023/12/19 01:30:05;;;;;;;15.40;10.70;;;5.20;99.90;;;;;;5060633;28;20563;-79
2023/12/19 01:32:31;;;;;;;20.33;11.00;;;5.10;99.90;;;;;;5068170;28;20192;-78
2023/12/19 01:34:56;;;;;;;19.27;10.30;;;5.20;99.90;;;;;;5054661;28;20187;-78
2023/12/19 01:37:22;;;;;;;15.83;10.73;;;5.20;99.90;;;;;;5055152;28;20210;-78
2023/12/19 01:39:47;;;;;;;16.33;11.13;;;5.20;99.90;;;;;;5054770;28;20245;-79
2023/12/19 01:42:13;;;;;;;19.93;10.83;;;5.20;99.90;;;;;;5066811;28;20821;-79
2023/12/19 01:44:38;;;;;;;17.70;11.23;;;5.20;99.90;;;;;;5055529;28;20233;-79
2023/12/19 01:47:04;;;;;;;15.43;10.93;;;5.10;99.90;;;;;;5075097;28;20182;-78
2023/12/19 01:49:30;;;;;;;18.83;10.80;;;5.20;99.90;;;;;;5074849;28;20191;-78
2023/12/19 01:51:56;;;;;;;18.27;10.80;;;5.20;99.90;;;;;;5075275;28;20171;-81
2023/12/19 01:54:21;;;;;;;17.70;11.27;;;5.20;99.90;;;;;;5075133;28;20175;-78
2023/12/19 01:56:47;;;;;;;21.13;11.33;;;5.20;99.90;;;;;;5056402;28;20206;-78
2023/12/19 01:59:14;;;;;;;20.70;11.67;;;5.30;99.90;;;;;;5056018;28;20275;-78
2023/12/19 02:01:40;;;;;;;18.23;11.80;;;5.30;99.90;;;;;;5055677;28;20176;-78
2023/12/19 02:04:07;;;;;;;19.10;12.23;;;5.30;99.90;;;;;;5054724;28;20183;-79
2023/12/19 02:06:35;;;;;;;20.70;12.43;;;5.30;99.90;;;;;;5055789;28;20204;-78
2023/12/19 02:09:01;;;;;;;20.37;11.80;;;5.30;99.90;;;;;;5063951;28;20194;-79
2023/12/19 02:11:28;;;;;;;20.73;13.20;;;5.30;99.90;;;;;;5073284;28;20174;-80
2023/12/19 02:13:56;;;;;;;19.07;12.03;;;5.30;99.90;;;;;;5069127;28;20183;-79
2023/12/19 02:16:22;;;;;;;18.47;12.33;;;5.30;99.90;;;;;;5056579;28;20206;-79
2023/12/19 02:19:00;;;;;;;17.83;11.60;;;5.30;99.90;;;;;;5055280;28;20180;-79
2023/12/19 02:21:25;;;;;;;19.47;12.07;;;5.30;99.90;;;;;;5054966;28;20155;-78
2023/12/19 02:23:51;;;;;;;22.70;12.47;;;5.30;99.90;;;;;;5061404;28;20651;-78
2023/12/19 02:26:17;;;;;;;17.97;12.50;;;5.30;99.90;;;;;;5054990;28;20182;-79
2023/12/19 02:28:42;;;;;;;20.07;13.77;;;5.40;99.90;;;;;;5054213;28;20172;-78
2023/12/19 02:31:08;;;;;;;23.10;14.90;;;5.30;99.90;;;;;;5054451;28;20176;-78
2023/12/19 02:33:33;;;;;;;19.97;13.03;;;5.30;99.90;;;;;;5061857;28;20670;-77
2023/12/19 02:35:59;;;;;;;21.47;15.07;;;5.30;99.90;;;;;;5072389;28;20179;-78
2023/12/19 02:38:24;;;;;;;26.50;15.83;;;5.30;99.90;;;;;;5072340;28;20284;-79
2023/12/19 02:40:50;;;;;;;21.53;15.47;;;5.30;99.90;;;;;;5074560;28;20213;-78
2023/12/19 02:43:15;;;;;;;21.27;14.83;;;5.30;99.90;;;;;;5064808;28;20308;-78
2023/12/19 02:45:41;;;;;;;27.57;16.07;;;5.30;99.90;;;;;;5070673;28;20321;-79
2023/12/19 02:48:06;;;;;;;21.97;16.20;;;5.30;99.90;;;;;;5059525;28;20231;-78
2023/12/19 02:50:32;;;;;;;21.20;15.57;;;5.20;99.90;;;;;;5059099;28;20243;-79
2023/12/19 02:52:57;;;;;;;18.83;14.97;;;5.20;99.90;;;;;;5070575;28;20178;-78
2023/12/19 02:55:23;;;;;;;18.73;14.33;;;5.20;99.90;;;;;;5070424;28;20195;-77
2023/12/19 02:57:48;;;;;;;25.37;16.17;;;5.20;99.90;;;;;;5063146;28;20195;-78
2023/12/19 03:00:14;;;;;;;24.60;15.33;;;5.10;99.90;;;;;;5057228;28;20195;-78
2023/12/19 03:02:40;;;;;;;21.17;15.43;;;5.10;99.90;;;;;;5057596;28;20191;-79
2023/12/19 03:05:06;;;;;;;22.30;14.87;;;5.10;99.90;;;;;;5076036;28;20175;-79
2023/12/19 03:07:31;;;;;;;18.67;14.50;;;5.10;99.90;;;;;;5057482;28;20186;-77
2023/12/19 03:09:57;;;;;;;17.17;14.17;;;5.00;99.90;;;;;;5074846;28;20199;-78
2023/12/19 03:12:22;;;;;;;20.60;13.83;;;5.00;99.90;;;;;;5077333;28;20175;-77
2023/12/19 03:14:48;;;;;;;20.00;14.33;;;5.00;99.90;;;;;;5058861;28;20187;-79
2023/12/19 03:17:13;;;;;;;20.23;14.37;;;5.00;99.90;;;;;;5074982;28;20294;-79
2023/12/19 03:19:39;;;;;;;18.83;13.93;;;5.00;99.90;;;;;;5077726;28;20194;-78
2023/12/19 03:22:05;;;;;;;18.27;13.93;;;5.00;99.90;;;;;;5077276;28;20175;-78
2023/12/19 03:24:30;;;;;;;21.20;14.20;;;4.90;99.90;;;;;;5062255;28;20187;-78
2023/12/19 03:26:56;;;;;;;18.80;13.70;;;4.90;99.90;;;;;;5057132;28;20192;-78
2023/12/19 03:29:22;;;;;;;23.80;13.70;;;4.90;99.90;;;;;;5057397;28;20663;-78
2023/12/19 03:31:48;;;;;;;17.90;13.63;;;4.90;99.90;;;;;;5057852;28;20187;-79
2023/12/19 03:34:13;;;;;;;20.47;13.70;;;5.00;99.90;;;;;;5069401;28;20308;-79
2023/12/19 03:36:39;;;;;;;18.27;13.43;;;5.00;99.90;;;;;;5063389;28;20208;-79
2023/12/19 03:39:04;;;;;;;23.73;14.13;;;4.90;99.90;;;;;;5065934;28;20263;-78
2023/12/19 03:41:29;;;;;;;18.13;13.70;;;4.90;99.90;;;;;;5077099;28;20575;-78
2023/12/19 03:43:55;;;;;;;20.13;13.80;;;4.90;99.90;;;;;;5067877;28;20254;-79
2023/12/19 03:46:21;;;;;;;18.37;13.87;;;5.00;99.90;;;;;;5056782;28;20320;-79
2023/12/19 03:48:46;;;;;;;17.43;13.07;;;4.90;99.90;;;;;;5057293;28;20195;-78
2023/12/19 03:51:12;;;;;;;18.70;13.83;;;4.90;99.90;;;;;;5057267;28;20176;-78
2023/12/19 03:53:38;;;;;;;17.87;13.47;;;4.90;99.90;;;;;;5062822;28;20175;-79
2023/12/19 03:56:04;;;;;;;19.53;14.07;;;5.00;99.90;;;;;;5067534;28;20305;-78
2023/12/19 03:58:30;;;;;;;16.63;12.93;;;5.00;99.90;;;;;;5056594;28;20217;-79
2023/12/19 04:00:55;;;;;;;16.83;13.67;;;4.90;99.90;;;;;;5057195;28;20171;-79
2023/12/19 04:03:21;;;;;;;21.03;14.43;;;4.90;99.90;;;;;;5059798;28;20284;-78
2023/12/19 04:05:46;;;;;;;18.93;14.37;;;4.90;99.90;;;;;;5070555;28;20180;-79
2023/12/19 04:08:12;;;;;;;19.97;14.43;;;4.90;99.90;;;;;;5056581;28;20168;-79
2023/12/19 04:10:38;;;;;;;17.93;14.23;;;4.90;99.90;;;;;;5076840;28;20682;-78
2023/12/19 04:13:03;;;;;;;19.77;14.20;;;4.90;99.90;;;;;;5075485;28;20171;-78
2023/12/19 04:15:30;;;;;;;18.53;13.73;;;4.90;99.90;;;;;;5076467;28;20191;-78
2023/12/19 04:17:56;;;;;;;18.10;13.83;;;4.90;99.90;;;;;;5082413;28;20205;-78
2023/12/19 04:20:21;;;;;;;20.57;14.17;;;4.90;99.90;;;;;;5076898;28;20190;-79
2023/12/19 04:22:47;;;;;;;18.87;14.63;;;4.90;99.90;;;;;;5076473;28;20235;-78
2023/12/19 04:25:12;;;;;;;18.37;13.93;;;4.90;99.90;;;;;;5069316;28;20249;-79
2023/12/19 04:27:38;;;;;;;20.43;14.97;;;4.90;99.90;;;;;;5056291;28;20175;-78
2023/12/19 04:30:04;;;;;;;17.57;13.77;;;4.90;99.90;;;;;;5056574;28;20195;-79
2023/12/19 04:32:29;;;;;;;19.70;14.63;;;4.90;99.90;;;;;;5056378;28;20194;-78
2023/12/19 04:34:55;;;;;;;19.53;14.27;;;4.90;99.90;;;;;;5059299;28;20183;-78
2023/12/19 04:37:20;;;;;;;20.23;14.50;;;4.90;99.90;;;;;;5074395;28;20207;-78
2023/12/19 04:39:46;;;;;;;19.20;14.70;;;4.90;99.90;;;;;;5074910;28;20248;-78
2023/12/19 04:42:17;;;;;;;21.37;15.10;;;4.80;99.90;;;;;;5076302;28;20185;-78
2023/12/19 04:44:46;;;;;;;18.07;13.60;;;4.90;99.90;;;;;;5075859;28;20163;-78
2023/12/19 04:47:12;;;;;;;22.03;13.77;;;4.90;99.90;;;;;;5073293;28;20240;-78
2023/12/19 04:49:38;;;;;;;19.90;14.07;;;4.80;99.90;;;;;;5055749;28;20705;-79
2023/12/19 04:52:04;;;;;;;18.67;14.27;;;4.80;99.90;;;;;;5055459;28;20178;-79
2023/12/19 04:54:30;;;;;;;19.67;15.00;;;4.90;99.90;;;;;;5057308;28;20187;-79
2023/12/19 04:56:56;;;;;;;24.17;15.43;;;4.90;99.90;;;;;;5075862;28;20240;-78
2023/12/19 04:59:21;;;;;;;17.83;14.03;;;4.80;99.90;;;;;;5056665;28;20204;-79
2023/12/19 05:01:47;;;;;;;16.77;14.37;;;4.90;99.90;;;;;;5068782;28;20175;-80
2023/12/19 05:04:12;;;;;;;20.10;14.47;;;4.80;99.90;;;;;;5060425;28;20237;-79
2023/12/19 05:06:38;;;;;;;18.43;14.33;;;4.90;99.90;;;;;;5055783;28;20168;-78
2023/12/19 05:09:03;;;;;;;19.97;14.13;;;4.90;99.90;;;;;;5068281;28;20209;-77
2023/12/19 05:11:29;;;;;;;17.77;14.30;;;4.90;99.90;;;;;;5074279;28;20622;-78
2023/12/19 05:13:55;;;;;;;18.37;14.17;;;4.90;99.90;;;;;;5043752;28;20214;-78
2023/12/19 05:16:20;;;;;;;19.83;14.73;;;4.90;99.90;;;;;;5054921;28;20172;-78
2023/12/19 05:18:46;;;;;;;20.03;14.03;;;4.90;99.90;;;;;;5054605;28;20168;-78
2023/12/19 05:21:12;;;;;;;18.40;13.73;;;4.90;99.90;;;;;;5054160;28;20184;-77
2023/12/19 05:23:39;;;;;;;17.00;13.17;;;4.90;99.90;;;;;;5057532;28;20199;-78
2023/12/19 05:26:06;;;;;;;19.87;14.60;;;4.90;99.90;;;;;;5058745;28;20191;-78
2023/12/19 05:28:34;;;;;;;19.30;14.10;;;5.00;99.90;;;;;;5054366;28;20621;-77
2023/12/19 05:31:00;;;;;;;20.97;14.17;;;5.00;99.90;;;;;;5058122;28;20175;-78
2023/12/19 05:33:29;;;;;;;18.50;13.23;;;5.00;99.90;;;;;;5072685;28;20661;-77
2023/12/19 05:35:55;;;;;;;21.70;14.13;;;5.00;99.90;;;;;;5038521;28;20195;-78
2023/12/19 05:38:21;;;;;;;18.27;14.00;;;5.00;99.90;;;;;;5054355;28;20254;-78
2023/12/19 05:40:47;;;;;;;18.83;14.47;;;5.10;99.90;;;;;;5063629;28;20199;-78
2023/12/19 05:43:13;;;;;;;18.70;13.60;;;5.10;99.90;;;;;;5060712;28;20201;-78
2023/12/19 05:45:39;;;;;;;18.67;13.87;;;5.10;99.90;;;;;;5070118;28;20282;-78
2023/12/19 05:48:05;;;;;;;16.00;13.17;;;5.20;99.90;;;;;;5067431;28;20195;-78
2023/12/19 05:50:31;;;;;;;19.30;14.60;;;5.20;99.90;;;;;;5072874;28;20231;-78
2023/12/19 05:52:56;;;;;;;20.77;13.63;;;5.20;99.90;;;;;;5069816;28;20179;-77
2023/12/19 05:55:22;;;;;;;19.77;13.90;;;5.20;99.90;;;;;;5052822;28;20190;-78
2023/12/19 05:57:48;;;;;;;19.77;14.20;;;5.20;99.90;;;;;;5063611;28;20198;-77
2023/12/19 06:00:15;;;;;;;19.63;14.13;;;5.20;99.90;;;;;;5072940;28;20195;-78
2023/12/19 06:02:41;;;;;;;18.50;14.07;;;5.20;99.90;;;;;;5072832;28;20171;-79
2023/12/19 06:05:07;;;;;;;19.47;13.23;;;5.30;99.90;;;;;;5072249;28;20167;-78
2023/12/19 06:07:36;;;;;;;21.73;13.47;;;5.30;99.90;;;;;;5055889;28;20209;-78
2023/12/19 06:10:12;;;;;;;16.77;13.67;;;5.30;99.90;;;;;;5072111;28;20219;-78
2023/12/19 06:12:38;;;;;;;15.23;12.80;;;5.30;99.90;;;;;;5072827;28;20161;-77
2023/12/19 06:15:08;;;;;;;22.43;12.30;;;5.30;99.90;;;;;;5072964;28;20261;-79
2023/12/19 06:17:35;;;;;;;17.00;12.50;;;5.40;99.90;;;;;;5073200;28;20216;-77
2023/12/19 06:20:01;;;;;;;19.33;12.93;;;5.40;99.90;;;;;;5072689;28;20211;-78
2023/12/19 06:22:27;;;;;;;16.47;11.90;;;5.40;99.90;;;;;;5073268;28;20647;-79
2023/12/19 06:24:53;;;;;;;14.70;11.73;;;5.40;99.90;;;;;;5073361;28;20178;-78
2023/12/19 06:27:18;;;;;;;15.47;12.53;;;5.40;99.90;;;;;;5054755;28;20175;-78
2023/12/19 06:29:44;;;;;;;15.33;12.37;;;5.40;99.90;;;;;;5053578;28;20207;-78
2023/12/19 06:32:12;;;;;;;15.30;12.47;;;5.50;99.90;;;;;;5053644;28;20674;-78
2023/12/19 06:34:38;;;;;;;16.57;12.63;;;5.50;99.90;;;;;;5061413;28;20187;-78
2023/12/19 06:37:04;;;;;;;17.30;11.97;;;5.60;99.90;;;;;;5042262;28;20211;-78
2023/12/19 06:39:29;;;;;;;18.93;12.03;;;5.60;99.90;;;;;;5059506;28;20304;-78
2023/12/19 06:41:55;;;;;;;17.90;12.40;;;5.60;99.90;;;;;;5053520;28;20172;-78
2023/12/19 06:44:21;;;;;;;14.80;11.50;;;5.60;99.90;;;;;;5053175;28;20555;-77
2023/12/19 06:46:49;;;;;;;14.33;11.03;;;5.70;99.90;;;;;;5064795;28;20622;-77
2023/12/19 06:49:18;;;;;;;16.80;11.53;;;5.70;99.90;;;;;;5073145;28;20278;-78
2023/12/19 06:51:44;;;;;;;16.37;11.50;;;5.70;99.90;;;;;;5073788;28;20646;-78
2023/12/19 06:54:10;;;;;;;14.77;11.23;;;5.70;99.90;;;;;;5073003;28;20205;-77
2023/12/19 06:56:35;;;;;;;13.90;10.93;;;5.80;99.90;;;;;;5060179;28;20635;-77
2023/12/19 06:59:01;;;;;;;16.23;11.23;;;5.80;99.90;;;;;;5052219;28;20198;-77
2023/12/19 07:01:27;;;;;;;17.63;9.83;;;5.80;99.90;;;;;;5056225;28;20596;-77
2023/12/19 07:03:53;;;;;;;13.20;10.30;;;5.80;99.90;;;;;;5057062;28;20211;-77
2023/12/19 07:06:19;;;;;;;15.43;10.40;;;5.90;99.90;;;;;;5053609;28;20246;-77
2023/12/19 07:08:44;;;;;;;13.63;10.63;;;5.90;99.90;;;;;;5054235;28;20176;-77
2023/12/19 07:11:10;;;;;;;13.90;11.03;;;5.90;99.90;;;;;;5058141;28;20174;-77
2023/12/19 07:13:36;;;;;;;14.90;10.93;;;6.00;99.90;;;;;;5071698;28;20178;-77
2023/12/19 07:16:03;;;;;;;13.60;11.17;;;6.00;99.90;;;;;;5059124;28;20702;-77
2023/12/19 07:18:29;;;;;;;13.67;10.73;;;6.00;99.90;;;;;;5051693;28;20196;-77
2023/12/19 07:20:54;;;;;;;17.30;11.13;;;6.00;99.90;;;;;;5051659;28;20168;-77
2023/12/19 07:23:20;;;;;;;15.27;10.93;;;6.00;99.90;;;;;;5052240;28;20174;-77
2023/12/19 07:25:45;;;;;;;14.23;10.63;;;6.00;99.90;;;;;;5051364;28;20188;-77
2023/12/19 07:28:12;;;;;;;15.00;10.90;;;6.10;99.90;;;;;;5051579;28;20221;-77
2023/12/19 07:30:37;;;;;;;15.70;10.97;;;6.10;99.90;;;;;;5052777;28;20196;-76
2023/12/19 07:33:04;;;;;;;13.67;10.50;;;6.10;99.90;;;;;;5055168;28;20278;-78
2023/12/19 07:35:29;;;;;;;15.47;10.83;;;6.20;99.90;;;;;;5068981;28;20589;-77
2023/12/19 07:37:55;;;;;;;15.90;10.33;;;6.20;99.90;;;;;;5072081;28;20202;-77
2023/12/19 07:40:20;;;;;;;14.30;11.20;;;6.20;99.90;;;;;;5084606;28;20183;-77
2023/12/19 07:42:46;;;;;;;14.73;10.47;;;6.30;99.90;;;;;;5083867;28;20170;-77
2023/12/19 07:45:12;;;;;;;16.00;11.20;;;6.30;99.90;;;;;;5076503;28;20387;-77
2023/12/19 07:47:38;;;;;;;15.57;10.27;;;6.30;99.90;;;;;;5060767;28;20275;-78
2023/12/19 07:50:05;;;;;;;12.70;9.83;;;6.30;99.90;;;;;;5056526;28;20235;-77
2023/12/19 07:52:30;;;;;;;14.00;10.70;;;6.40;99.90;;;;;;5056059;28;20254;-77
2023/12/19 07:54:56;;;;;;;16.50;10.43;;;6.30;99.90;;;;;;5056238;28;20599;-77
2023/12/19 07:57:21;;;;;;;16.90;11.20;;;6.30;99.90;;;;;;5055684;28;20548;-77
2023/12/19 07:59:48;;;;;;;14.50;11.57;;;6.40;99.90;;;;;;5055676;28;20303;-77
2023/12/19 08:02:14;;;;;;;15.33;11.00;;;6.40;99.90;;;;;;5055896;28;20572;-77
2023/12/19 08:04:42;;;;;;;17.60;10.97;;;6.40;99.90;;;;;;5055800;28;20163;-77
2023/12/19 08:07:08;;;;;;;13.77;11.17;;;6.50;99.90;;;;;;5055887;28;20172;-78
2023/12/19 08:09:34;;;;;;;15.83;10.70;;;6.40;99.90;;;;;;5055195;28;20269;-77
2023/12/19 08:11:59;;;;;;;13.60;10.43;;;6.40;99.90;;;;;;5056007;28;20301;-77
2023/12/19 08:14:25;;;;;;;19.40;10.90;;;6.50;99.90;;;;;;5055772;28;20175;-77
2023/12/19 08:16:51;;;;;;;16.97;11.27;;;6.50;99.90;;;;;;5055498;28;20192;-76
2023/12/19 08:19:17;;;;;;;17.53;10.40;;;6.50;99.90;;;;;;5055094;28;20196;-77
2023/12/19 08:21:53;;;;;;;16.33;10.37;;;6.50;99.90;;;;;;5054731;28;20172;-77
2023/12/19 08:24:19;;;;;;;14.83;10.13;;;6.50;99.90;;;;;;5056483;28;20638;-77
2023/12/19 08:26:49;;;;;;;14.20;9.87;;;6.50;99.90;;;;;;5055209;28;20301;-77
2023/12/19 08:29:15;;;;;;;15.90;11.03;;;6.50;99.90;;;;;;5073391;28;20202;-78
2023/12/19 08:31:41;;;;;;;15.97;9.77;;;6.50;99.90;;;;;;5082390;28;20183;-77
2023/12/19 08:34:06;;;;;;;15.57;9.67;;;6.50;99.90;;;;;;5074835;28;20667;-77
2023/12/19 08:36:32;;;;;;;18.30;10.43;;;6.60;99.90;;;;;;5074968;28;20202;-78
2023/12/19 08:38:59;;;;;;;16.43;10.20;;;6.50;99.90;;;;;;5075099;28;20187;-78
2023/12/19 08:41:24;;;;;;;12.50;9.37;;;6.60;99.90;;;;;;5073839;28;20167;-77
2023/12/19 08:43:50;;;;;;;14.63;9.20;;;6.60;99.90;;;;;;5074795;28;20182;-77
2023/12/19 08:46:19;;;;;;;17.63;9.57;;;6.60;99.90;;;;;;5062355;28;20176;-78
2023/12/19 08:48:47;;;;;;;14.03;9.67;;;6.60;99.90;;;;;;5054928;28;20214;-77
2023/12/19 08:51:13;;;;;;;17.77;10.27;;;6.60;99.90;;;;;;5055132;28;20176;-77
2023/12/19 08:53:38;;;;;;;16.50;9.07;;;6.70;99.90;;;;;;5054969;28;20164;-77
2023/12/19 08:56:04;;;;;;;16.30;9.03;;;6.70;99.90;;;;;;5055004;28;20172;-78
2023/12/19 08:58:30;;;;;;;16.50;8.60;;;6.70;99.90;;;;;;5054876;28;20214;-77
2023/12/19 09:00:56;;;;;;;16.13;9.33;;;6.70;99.90;;;;;;5055280;28;20168;-78
2023/12/19 09:03:23;;;;;;;11.90;8.67;;;6.70;99.90;;;;;;5055266;28;20171;-78
2023/12/19 09:05:49;;;;;;;15.40;8.50;;;6.70;99.90;;;;;;5055065;28;20174;-78
2023/12/19 09:08:15;;;;;;;15.53;8.70;;;6.70;99.90;;;;;;5074754;28;20186;-78
2023/12/19 09:10:41;;;;;;;15.23;8.83;;;6.80;99.90;;;;;;5075025;28;20743;-77
2023/12/19 09:13:07;;;;;;;13.83;8.60;;;6.80;99.90;;;;;;5075049;28;20221;-78
2023/12/19 09:15:33;;;;;;;16.60;9.13;;;6.80;99.90;;;;;;5075025;28;20193;-77
2023/12/19 09:17:58;;;;;;;13.23;8.97;;;6.80;99.90;;;;;;5074919;28;20198;-78
2023/12/19 09:20:24;;;;;;;11.93;9.40;;;6.80;99.90;;;;;;5068575;28;20241;-79
2023/12/19 09:22:50;;;;;;;13.13;9.77;;;6.80;99.90;;;;;;5055259;28;20171;-78
2023/12/19 09:25:16;;;;;;;17.07;8.90;;;6.80;99.90;;;;;;5055213;28;20171;-78
2023/12/19 09:27:43;;;;;;;12.40;8.83;;;6.80;99.90;;;;;;5055073;28;20551;-77
2023/12/19 09:30:14;;;;;;;13.67;9.07;;;6.80;99.90;;;;;;5054973;28;20203;-78
2023/12/19 09:32:40;;;;;;;11.90;8.73;;;6.80;99.90;;;;;;5056997;28;20252;-78
2023/12/19 09:35:07;;;;;;;14.70;8.77;;;6.80;99.90;;;;;;5058968;28;20558;-78
2023/12/19 09:37:33;;;;;;;15.53;8.83;;;6.80;99.90;;;;;;5064945;28;20211;-77
2023/12/19 09:39:59;;;;;;;12.33;8.67;;;6.80;99.90;;;;;;5055501;28;20211;-77
2023/12/19 09:42:27;;;;;;;14.57;9.17;;;6.80;99.90;;;;;;5054087;28;20701;-78
2023/12/19 09:44:52;;;;;;;14.00;8.70;;;6.80;99.90;;;;;;5054358;28;20180;-77
2023/12/19 09:47:23;;;;;;;15.50;8.83;;;6.80;99.90;;;;;;5054027;28;20181;-77
2023/12/19 09:49:52;;;;;;;14.00;9.43;;;6.80;99.90;;;;;;5054433;28;20199;-78
2023/12/19 09:52:22;;;;;;;13.47;7.83;;;6.80;99.90;;;;;;5054045;28;20179;-78
2023/12/19 09:54:51;;;;;;;20.17;7.93;;;6.90;99.90;;;;;;5053967;28;20192;-77
2023/12/19 09:57:23;;;;;;;12.87;7.30;;;6.80;99.90;;;;;;5053773;28;20679;-78
2023/12/19 09:59:52;;;;;;;11.43;6.97;;;6.90;99.90;;;;;;5053637;28;20690;-78
2023/12/19 10:02:18;;;;;;;10.73;6.37;;;6.90;99.90;;;;;;5052963;28;20606;-76
2023/12/19 10:04:44;;;;;;;12.50;6.13;;;6.90;99.90;;;;;;5053047;28;20195;-77
2023/12/19 10:07:09;;;;;;;12.83;6.20;;;7.00;99.90;;;;;;5052750;28;20655;-77
2023/12/19 10:09:51;;;;;;;10.40;6.20;;;7.10;99.90;;;;;;5053971;28;20207;-77
2023/12/19 10:12:16;;;;;;;13.73;5.87;;;7.10;99.90;;;;;;5053414;28;20197;-78
2023/12/19 10:14:46;;;;;;;18.17;6.10;;;7.10;99.90;;;;;;5053512;28;20297;-77
2023/12/19 10:17:15;;;;;;;12.40;6.33;;;7.20;99.90;;;;;;5053164;28;20679;-77
2023/12/19 10:19:41;;;;;;;15.10;6.27;;;7.20;99.90;;;;;;5053497;28;20282;-78
2023/12/19 10:22:08;;;;;;;9.30;6.10;;;7.20;99.90;;;;;;5053635;28;20603;-78
2023/12/19 10:24:34;;;;;;;16.27;6.20;;;7.20;99.90;;;;;;5035698;28;20176;-77
2023/12/19 10:27:02;;;;;;;11.90;6.03;;;7.30;99.90;;;;;;5053545;28;20687;-78
2023/12/19 10:29:36;;;;;;;14.93;5.83;;;7.30;99.90;;;;;;5053775;28;20531;-77
2023/12/19 10:32:19;;;;;;;12.97;5.37;;;7.30;99.90;;;;;;5053434;28;20677;-77
2023/12/19 10:34:45;;;;;;;12.13;5.57;;;7.30;99.90;;;;;;5053986;28;20175;-78
2023/12/19 10:37:18;;;;;;;9.90;5.17;;;7.30;99.90;;;;;;5054950;28;20196;-78
2023/12/19 10:39:44;;;;;;;13.30;5.73;;;7.30;99.90;;;;;;5073630;28;20213;-78
2023/12/19 10:42:10;;;;;;;11.53;5.33;;;7.30;99.90;;;;;;5074072;28;20631;-77
2023/12/19 10:44:38;;;;;;;10.93;5.87;;;7.30;99.90;;;;;;5073568;28;20660;-77
2023/12/19 10:47:06;;;;;;;11.10;5.33;;;7.30;99.90;;;;;;5074442;28;20178;-78
2023/12/19 10:49:31;;;;;;;10.97;5.23;;;7.40;99.90;;;;;;5073706;28;20662;-78
2023/12/19 10:52:04;;;;;;;12.63;5.00;;;7.40;99.90;;;;;;5063681;28;20184;-78
2023/12/19 10:54:32;;;;;;;13.73;5.03;;;7.40;99.90;;;;;;5053985;28;20564;-78
2023/12/19 10:57:17;;;;;;;15.30;5.73;;;7.40;99.90;;;;;;5053926;28;20607;-78
2023/12/19 10:59:58;;;;;;;9.23;4.83;;;7.30;99.90;;;;;;5073912;28;20190;-78
2023/12/19 11:02:55;;;;;;;9.00;4.87;;;7.30;99.90;;;;;;5073274;28;20182;-78
2023/12/19 11:05:33;;;;;;;8.23;4.90;;;7.30;99.90;;;;;;5074857;28;20159;-77
2023/12/19 11:08:08;;;;;;;10.07;5.13;;;7.40;99.90;;;;;;5071148;28;20190;-78
2023/12/19 11:10:38;;;;;;;10.97;5.17;;;7.30;99.90;;;;;;5057624;28;20202;-78
2023/12/19 11:13:04;;;;;;;10.80;5.13;;;7.30;99.90;;;;;;5057527;28;20148;-78
2023/12/19 11:15:32;;;;;;;11.33;5.40;;;7.30;99.90;;;;;;5057070;28;20208;-80
2023/12/19 11:18:06;;;;;;;7.67;4.57;;;7.30;99.90;;;;;;5058070;28;20290;-78
2023/12/19 11:20:42;;;;;;;10.17;5.27;;;7.30;99.90;;;;;;5064571;28;20614;-77
2023/12/19 11:23:17;;;;;;;8.13;4.80;;;7.30;99.90;;;;;;5068272;28;20592;-77
2023/12/19 11:25:59;;;;;;;13.93;5.50;;;7.30;99.90;;;;;;5058633;28;20177;-77
2023/12/19 11:28:26;;;;;;;13.33;5.53;;;7.30;99.90;;;;;;5057232;28;20156;-77
2023/12/19 11:30:52;;;;;;;10.17;5.23;;;7.30;99.90;;;;;;5055562;28;20208;-78
2023/12/19 11:33:29;;;;;;;11.73;5.40;;;7.30;99.90;;;;;;5057152;28;20262;-77
2023/12/19 11:35:54;;;;;;;10.43;5.07;;;7.30;99.90;;;;;;5056768;28;20190;-78
2023/12/19 11:38:25;;;;;;;8.40;4.80;;;7.30;99.90;;;;;;5056956;28;20737;-77
2023/12/19 11:40:58;;;;;;;10.30;4.83;;;7.30;99.90;;;;;;5056961;28;20193;-78
2023/12/19 11:43:29;;;;;;;12.00;5.30;;;7.30;99.90;;;;;;5056943;28;20201;-78
2023/12/19 11:46:17;;;;;;;11.43;5.73;;;7.30;99.90;;;;;;5057158;28;20179;-78
2023/12/19 11:48:47;;;;;;;10.87;4.60;;;7.30;99.90;;;;;;5062118;28;20152;-78
2023/12/19 11:51:13;;;;;;;10.33;4.97;;;7.30;99.90;;;;;;5065921;28;20254;-77
2023/12/19 11:53:40;;;;;;;5.30;4.23;;;7.30;99.90;;;;;;5057687;28;20171;-77
2023/12/19 11:56:11;;;;;;;12.00;5.83;;;7.30;99.90;;;;;;5056276;28;20172;-78
2023/12/19 11:58:52;;;;;;;6.70;4.60;;;7.30;99.90;;;;;;5056444;28;20195;-78
2023/12/19 12:01:20;;;;;;;8.80;4.90;;;7.30;99.90;;;;;;5056171;28;20182;-77
2023/12/19 12:03:47;;;;;;;10.87;5.40;;;7.30;99.90;;;;;;5056267;28;20259;-77
2023/12/19 12:06:17;;;;;;;8.33;4.87;;;7.30;99.90;;;;;;5056468;28;20199;-78
2023/12/19 12:08:52;;;;;;;12.33;5.00;;;7.40;99.90;;;;;;5056018;28;20163;-78
2023/12/19 12:11:18;;;;;;;11.00;6.00;;;7.30;99.90;;;;;;5056666;28;20152;-77
2023/12/19 12:14:03;;;;;;;8.93;5.00;;;7.30;99.90;;;;;;5054819;28;20285;-76
2023/12/19 12:16:39;;;;;;;7.43;5.27;;;7.40;99.90;;;;;;5054614;28;20225;-77
2023/12/19 12:19:16;;;;;;;9.80;4.53;;;7.40;99.90;;;;;;5054760;28;20206;-77
2023/12/19 12:21:52;;;;;;;9.40;5.50;;;7.40;99.90;;;;;;5055341;28;20155;-77
2023/12/19 12:24:22;;;;;;;9.23;5.07;;;7.30;99.90;;;;;;5055360;28;20156;-77
2023/12/19 12:26:49;;;;;;;6.33;4.73;;;7.30;99.90;;;;;;5054987;28;20191;-78
2023/12/19 12:29:17;;;;;;;7.00;5.07;;;7.30;99.90;;;;;;5056030;28;20206;-77
2023/12/19 12:31:46;;;;;;;6.97;5.10;;;7.30;99.90;;;;;;5055022;28;20206;-77
2023/12/19 12:34:11;;;;;;;12.37;5.60;;;7.30;99.90;;;;;;5055340;28;20287;-77
2023/12/19 12:36:37;;;;;;;10.27;5.10;;;7.30;99.90;;;;;;5055221;28;20183;-77
2023/12/19 12:39:04;;;;;;;11.23;5.30;;;7.30;99.90;;;;;;5055239;28;20529;-78